createdAt,value
2017-11-25T00:00:07.300Z,1008.70
2017-11-25T00:01:07.265Z,1008.68
2017-11-25T00:02:07.222Z,1008.66
2017-11-25T00:03:07.190Z,1008.58
2017-11-25T00:04:07.149Z,1008.63
2017-11-25T00:05:07.115Z,1008.65
2017-11-25T00:06:07.078Z,1008.65
2017-11-25T00:07:07.085Z,1008.68
2017-11-25T00:08:07.094Z,1008.64
2017-11-25T00:09:06.959Z,1008.66
2017-11-25T00:10:06.917Z,1008.61
2017-11-25T00:11:06.886Z,1008.64
2017-11-25T00:12:06.837Z,1008.60
2017-11-25T00:13:06.798Z,1008.66
2017-11-25T00:14:06.789Z,1008.71
2017-11-25T00:15:06.749Z,1008.75
2017-11-25T00:16:06.688Z,1008.78
2017-11-25T00:17:06.680Z,1008.86
2017-11-25T00:18:06.615Z,1008.88
2017-11-25T00:19:06.574Z,1008.93
2017-11-25T00:20:06.537Z,1008.94
2017-11-25T00:21:06.502Z,1008.95
2017-11-25T00:22:06.449Z,1008.93
2017-11-25T00:23:06.413Z,1008.90
2017-11-25T00:24:06.383Z,1008.92
2017-11-25T00:25:06.341Z,1008.89
2017-11-25T00:26:06.293Z,1008.85
2017-11-25T00:27:06.271Z,1008.79
2017-11-25T00:28:06.227Z,1008.73
2017-11-25T00:29:06.183Z,1008.76
2017-11-25T00:30:06.140Z,1008.68
2017-11-25T00:31:06.120Z,1008.66
2017-11-25T00:32:06.077Z,1008.63
2017-11-25T00:33:06.030Z,1008.62
2017-11-25T00:34:05.993Z,1008.56
2017-11-25T00:35:06.530Z,1008.54
2017-11-25T00:36:05.915Z,1008.49
2017-11-25T00:37:05.870Z,1008.49
2017-11-25T00:38:05.859Z,1008.47
2017-11-25T00:39:05.795Z,1008.50
2017-11-25T00:40:05.765Z,1008.55
2017-11-25T00:41:05.721Z,1008.54
2017-11-25T00:42:05.685Z,1008.54
2017-11-25T00:43:05.639Z,1008.50
2017-11-25T00:44:05.600Z,1008.52
2017-11-25T00:45:05.560Z,1008.57
2017-11-25T00:46:05.518Z,1008.53
2017-11-25T00:47:05.540Z,1008.51
2017-11-25T00:48:05.441Z,1008.48
2017-11-25T00:49:05.408Z,1008.49
2017-11-25T00:50:05.377Z,1008.52
2017-11-25T00:51:05.328Z,1008.54
2017-11-25T00:52:05.294Z,1008.51
2017-11-25T00:53:05.254Z,1008.49
2017-11-25T00:54:05.214Z,1008.50
2017-11-25T00:55:05.167Z,1008.45
2017-11-25T00:56:05.152Z,1008.49
2017-11-25T00:57:05.093Z,1008.47
2017-11-25T00:58:05.065Z,1008.51
2017-11-25T00:59:05.042Z,1008.50
2017-11-25T01:00:04.976Z,1008.44
2017-11-25T01:01:04.955Z,1008.43
2017-11-25T01:02:04.918Z,1008.39
2017-11-25T01:03:04.863Z,1008.32
2017-11-25T01:04:04.857Z,1008.32
2017-11-25T01:05:04.791Z,1008.32
2017-11-25T01:06:04.763Z,1008.37
2017-11-25T01:07:04.702Z,1008.41
2017-11-25T01:08:04.681Z,1008.44
2017-11-25T01:09:04.637Z,1008.46
2017-11-25T01:10:04.607Z,1008.43
2017-11-25T01:11:04.553Z,1008.41
2017-11-25T01:12:04.507Z,1008.32
2017-11-25T01:13:04.470Z,1008.30
2017-11-25T01:14:04.432Z,1008.26
2017-11-25T01:15:04.434Z,1008.26
2017-11-25T01:16:04.348Z,1008.22
2017-11-25T01:17:04.311Z,1008.25
2017-11-25T01:18:04.278Z,1008.26
2017-11-25T01:19:04.229Z,1008.26
2017-11-25T01:20:04.193Z,1008.29
2017-11-25T01:21:04.153Z,1008.22
2017-11-25T01:22:04.116Z,1008.15
2017-11-25T01:23:04.077Z,1008.11
2017-11-25T01:24:04.038Z,1008.08
2017-11-25T01:25:03.993Z,1008.13
2017-11-25T01:26:03.972Z,1008.12
2017-11-25T01:27:03.921Z,1008.11
2017-11-25T01:28:03.953Z,1008.10
2017-11-25T01:29:03.837Z,1008.06
2017-11-25T01:30:03.810Z,1008.00
2017-11-25T01:31:03.768Z,1007.98
2017-11-25T01:32:03.725Z,1008.02
2017-11-25T01:33:03.686Z,1008.03
2017-11-25T01:34:03.644Z,1008.07
2017-11-25T01:35:03.619Z,1008.08
2017-11-25T01:36:03.566Z,1008.07
2017-11-25T01:37:03.532Z,1008.09
2017-11-25T01:38:03.487Z,1008.05
2017-11-25T01:39:03.446Z,1008.04
2017-11-25T01:40:03.415Z,1007.98
2017-11-25T01:41:03.374Z,1007.98
2017-11-25T01:42:03.331Z,1007.94
2017-11-25T01:43:03.298Z,1007.88
2017-11-25T01:44:03.253Z,1007.88
2017-11-25T01:45:03.229Z,1007.90
2017-11-25T01:46:03.179Z,1007.90
2017-11-25T01:47:03.135Z,1007.92
2017-11-25T01:48:03.097Z,1007.94
2017-11-25T01:49:03.055Z,1007.93
2017-11-25T01:50:03.033Z,1007.92
2017-11-25T01:51:02.977Z,1007.91
2017-11-25T01:52:02.952Z,1007.89
2017-11-25T01:53:02.903Z,1007.90
2017-11-25T01:54:02.859Z,1007.91
2017-11-25T01:55:02.837Z,1007.90
2017-11-25T01:56:02.780Z,1007.92
2017-11-25T01:57:02.768Z,1007.95
2017-11-25T01:58:02.703Z,1007.91
2017-11-25T01:59:02.673Z,1007.86
2017-11-25T02:00:02.630Z,1007.87
2017-11-25T02:01:02.593Z,1007.85
2017-11-25T02:02:02.556Z,1007.88
2017-11-25T02:03:02.508Z,1007.87
2017-11-25T02:04:02.470Z,1007.86
2017-11-25T02:05:02.428Z,1007.85
2017-11-25T02:06:02.395Z,1007.82
2017-11-25T02:07:02.352Z,1007.79
2017-11-25T02:08:02.314Z,1007.82
2017-11-25T02:09:02.274Z,1007.86
2017-11-25T02:10:02.233Z,1007.85
2017-11-25T02:11:02.199Z,1007.83
2017-11-25T02:12:02.156Z,1007.82
2017-11-25T02:13:02.119Z,1007.77
2017-11-25T02:14:02.091Z,1007.77
2017-11-25T02:15:02.049Z,1007.75
2017-11-25T02:16:02.001Z,1007.75
2017-11-25T02:17:01.959Z,1007.74
2017-11-25T02:18:01.921Z,1007.71
2017-11-25T02:19:01.896Z,1007.74
2017-11-25T02:20:01.848Z,1007.74
2017-11-25T02:21:01.813Z,1007.69
2017-11-25T02:22:01.790Z,1007.65
2017-11-25T02:23:01.725Z,1007.66
2017-11-25T02:24:01.685Z,1007.69
2017-11-25T02:25:01.653Z,1007.69
2017-11-25T02:26:01.617Z,1007.72
2017-11-25T02:27:01.572Z,1007.68
2017-11-25T02:28:01.537Z,1007.59
2017-11-25T02:29:01.516Z,1007.59
2017-11-25T02:30:01.460Z,1007.57
2017-11-25T02:31:01.418Z,1007.58
2017-11-25T02:32:01.383Z,1007.60
2017-11-25T02:33:01.350Z,1007.59
2017-11-25T02:34:01.295Z,1007.59
2017-11-25T02:35:01.260Z,1007.59
2017-11-25T02:36:01.220Z,1007.52
2017-11-25T02:37:01.178Z,1007.52
2017-11-25T02:38:01.145Z,1007.52
2017-11-25T02:39:01.114Z,1007.53
2017-11-25T02:40:01.063Z,1007.44
2017-11-25T02:41:01.025Z,1007.45
2017-11-25T02:42:00.986Z,1007.39
2017-11-25T02:43:00.943Z,1007.35
2017-11-25T02:44:00.916Z,1007.34
2017-11-25T02:45:00.865Z,1007.29
2017-11-25T02:46:00.828Z,1007.28
2017-11-25T02:47:00.792Z,1007.28
2017-11-25T02:48:00.748Z,1007.25
2017-11-25T02:49:00.710Z,1007.20
2017-11-25T02:50:00.673Z,1007.15
2017-11-25T02:51:00.642Z,1007.13
2017-11-25T02:52:00.595Z,1007.12
2017-11-25T02:53:01.560Z,1007.11
2017-11-25T02:54:00.528Z,1007.13
2017-11-25T02:55:00.478Z,1007.11
2017-11-25T02:56:00.436Z,1007.09
2017-11-25T02:57:00.398Z,1007.09
2017-11-25T02:58:00.388Z,1007.05
2017-11-25T02:59:00.334Z,1006.97
2017-11-25T03:00:00.288Z,1006.96
2017-11-25T03:01:00.242Z,1006.90
2017-11-25T03:02:00.209Z,1006.86
2017-11-25T03:03:00.172Z,1006.83
2017-11-25T03:04:00.122Z,1006.85
2017-11-25T03:05:00.092Z,1006.78
2017-11-25T03:06:00.045Z,1006.79
2017-11-25T03:07:00.008Z,1006.78
2017-11-25T03:07:59.981Z,1006.82
2017-11-25T03:08:59.938Z,1006.74
2017-11-25T03:09:59.902Z,1006.72
2017-11-25T03:10:59.854Z,1006.72
2017-11-25T03:11:59.828Z,1006.69
2017-11-25T03:12:59.784Z,1006.71
2017-11-25T03:13:59.751Z,1006.70
2017-11-25T03:14:59.700Z,1006.72
2017-11-25T03:15:59.668Z,1006.69
2017-11-25T03:16:59.637Z,1006.66
2017-11-25T03:17:59.579Z,1006.66
2017-11-25T03:18:59.544Z,1006.61
2017-11-25T03:19:59.509Z,1006.61
2017-11-25T03:20:59.468Z,1006.57
2017-11-25T03:21:59.445Z,1006.51
2017-11-25T03:22:59.393Z,1006.50
2017-11-25T03:23:59.350Z,1006.46
2017-11-25T03:24:59.308Z,1006.47
2017-11-25T03:25:59.293Z,1006.47
2017-11-25T03:26:59.232Z,1006.45
2017-11-25T03:27:59.221Z,1006.46
2017-11-25T03:28:59.162Z,1006.44
2017-11-25T03:29:59.106Z,1006.46
2017-11-25T03:30:59.079Z,1006.45
2017-11-25T03:31:59.036Z,1006.44
2017-11-25T03:32:58.992Z,1006.44
2017-11-25T03:33:58.976Z,1006.42
2017-11-25T03:34:58.919Z,1006.42
2017-11-25T03:35:58.886Z,1006.39
2017-11-25T03:36:58.835Z,1006.36
2017-11-25T03:37:58.818Z,1006.32
2017-11-25T03:38:58.780Z,1006.32
2017-11-25T03:39:58.720Z,1006.28
2017-11-25T03:40:58.699Z,1006.27
2017-11-25T03:41:58.643Z,1006.28
2017-11-25T03:42:58.609Z,1006.29
2017-11-25T03:43:58.566Z,1006.25
2017-11-25T03:44:58.528Z,1006.26
2017-11-25T03:45:58.484Z,1006.17
2017-11-25T03:46:58.451Z,1006.14
2017-11-25T03:47:58.403Z,1006.13
2017-11-25T03:48:58.372Z,1006.09
2017-11-25T03:49:58.327Z,1006.12
2017-11-25T03:50:58.300Z,1006.12
2017-11-25T03:51:58.249Z,1006.20
2017-11-25T03:52:58.210Z,1006.19
2017-11-25T03:53:58.178Z,1006.18
2017-11-25T03:54:58.133Z,1006.21
2017-11-25T03:55:58.101Z,1006.10
2017-11-25T03:56:58.060Z,1006.12
2017-11-25T03:57:58.016Z,1006.10
2017-11-25T03:58:57.977Z,1006.08
2017-11-25T03:59:57.941Z,1006.07
2017-11-25T04:00:57.897Z,1006.02
2017-11-25T04:01:57.861Z,1006.04
2017-11-25T04:02:57.823Z,1006.02
2017-11-25T04:03:57.782Z,1006.01
2017-11-25T04:04:57.763Z,1006.00
2017-11-25T04:05:57.705Z,1006.02
2017-11-25T04:06:58.583Z,1006.00
2017-11-25T04:07:57.649Z,1005.98
2017-11-25T04:08:57.591Z,1005.98
2017-11-25T04:09:57.549Z,1005.97
2017-11-25T04:10:57.516Z,1005.91
2017-11-25T04:11:57.473Z,1005.83
2017-11-25T04:12:57.433Z,1005.82
2017-11-25T04:13:57.393Z,1005.82
2017-11-25T04:14:57.360Z,1005.78
2017-11-25T04:15:57.315Z,1005.73
2017-11-25T04:16:57.274Z,1005.68
2017-11-25T04:17:57.236Z,1005.64
2017-11-25T04:18:57.195Z,1005.60
2017-11-25T04:19:57.162Z,1005.57
2017-11-25T04:20:57.116Z,1005.58
2017-11-25T04:21:57.080Z,1005.59
2017-11-25T04:22:57.038Z,1005.60
2017-11-25T04:23:57.001Z,1005.56
2017-11-25T04:24:56.964Z,1005.56
2017-11-25T04:25:56.931Z,1005.57
2017-11-25T04:26:56.879Z,1005.56
2017-11-25T04:27:56.842Z,1005.53
2017-11-25T04:28:56.803Z,1005.54
2017-11-25T04:29:56.762Z,1005.50
2017-11-25T04:30:56.729Z,1005.51
2017-11-25T04:31:56.711Z,1005.48
2017-11-25T04:32:56.649Z,1005.51
2017-11-25T04:33:56.605Z,1005.49
2017-11-25T04:34:56.582Z,1005.49
2017-11-25T04:35:56.528Z,1005.49
2017-11-25T04:36:56.489Z,1005.46
2017-11-25T04:37:56.475Z,1005.49
2017-11-25T04:38:56.411Z,1005.50
2017-11-25T04:39:56.380Z,1005.52
2017-11-25T04:40:56.331Z,1005.50
2017-11-25T04:41:56.291Z,1005.49
2017-11-25T04:42:56.258Z,1005.41
2017-11-25T04:43:56.216Z,1005.37
2017-11-25T04:44:56.178Z,1005.37
2017-11-25T04:45:56.156Z,1005.37
2017-11-25T04:46:56.099Z,1005.36
2017-11-25T04:47:56.053Z,1005.35
2017-11-25T04:48:56.038Z,1005.35
2017-11-25T04:49:55.985Z,1005.36
2017-11-25T04:50:55.940Z,1005.30
2017-11-25T04:51:55.895Z,1005.25
2017-11-25T04:52:55.858Z,1005.26
2017-11-25T04:53:55.831Z,1005.18
2017-11-25T04:54:55.775Z,1005.11
2017-11-25T04:55:55.742Z,1005.14
2017-11-25T04:56:55.702Z,1005.09
2017-11-25T04:57:55.659Z,1005.07
2017-11-25T04:58:55.618Z,1005.04
2017-11-25T04:59:55.578Z,1005.01
2017-11-25T05:00:55.544Z,1005.02
2017-11-25T05:01:56.088Z,1004.98
2017-11-25T05:02:55.537Z,1004.91
2017-11-25T05:03:55.427Z,1004.95
2017-11-25T05:04:55.384Z,1004.95
2017-11-25T05:05:55.355Z,1004.99
2017-11-25T05:06:55.317Z,1004.98
2017-11-25T05:07:55.275Z,1004.96
2017-11-25T05:08:55.241Z,1004.96
2017-11-25T05:09:55.190Z,1004.90
2017-11-25T05:10:55.147Z,1004.88
2017-11-25T05:11:55.102Z,1004.85
2017-11-25T05:12:55.072Z,1004.81
2017-11-25T05:13:55.065Z,1004.82
2017-11-25T05:14:54.984Z,1004.86
2017-11-25T05:15:54.948Z,1004.86
2017-11-25T05:16:54.921Z,1004.81
2017-11-25T05:17:54.870Z,1004.80
2017-11-25T05:18:54.842Z,1004.74
2017-11-25T05:19:54.799Z,1004.78
2017-11-25T05:20:54.747Z,1004.81
2017-11-25T05:21:54.718Z,1004.79
2017-11-25T05:22:54.669Z,1004.79
2017-11-25T05:23:54.635Z,1004.84
2017-11-25T05:24:54.603Z,1004.80
2017-11-25T05:25:54.566Z,1004.77
2017-11-25T05:26:54.512Z,1004.75
2017-11-25T05:27:54.480Z,1004.72
2017-11-25T05:28:54.440Z,1004.72
2017-11-25T05:29:54.396Z,1004.71
2017-11-25T05:30:54.366Z,1004.72
2017-11-25T05:31:54.312Z,1004.75
2017-11-25T05:32:54.274Z,1004.71
2017-11-25T05:33:54.240Z,1004.69
2017-11-25T05:34:54.192Z,1004.70
2017-11-25T05:35:54.150Z,1004.69
2017-11-25T05:36:54.117Z,1004.68
2017-11-25T05:37:54.077Z,1004.70
2017-11-25T05:38:54.043Z,1004.67
2017-11-25T05:39:53.996Z,1004.65
2017-11-25T05:40:53.954Z,1004.65
2017-11-25T05:41:53.912Z,1004.68
2017-11-25T05:42:53.873Z,1004.61
2017-11-25T05:43:53.850Z,1004.63
2017-11-25T05:44:53.792Z,1004.60
2017-11-25T05:45:53.753Z,1004.59
2017-11-25T05:46:53.717Z,1004.57
2017-11-25T05:47:53.673Z,1004.55
2017-11-25T05:48:53.632Z,1004.52
2017-11-25T05:49:53.597Z,1004.52
2017-11-25T05:50:53.557Z,1004.52
2017-11-25T05:51:53.513Z,1004.47
2017-11-25T05:52:53.476Z,1004.50
2017-11-25T05:53:53.438Z,1004.47
2017-11-25T05:54:53.395Z,1004.44
2017-11-25T05:55:53.353Z,1004.43
2017-11-25T05:56:53.314Z,1004.43
2017-11-25T05:57:53.273Z,1004.41
2017-11-25T05:58:53.234Z,1004.37
2017-11-25T05:59:53.204Z,1004.37
2017-11-25T06:00:53.162Z,1004.35
2017-11-25T06:01:53.114Z,1004.35
2017-11-25T06:02:53.080Z,1004.32
2017-11-25T06:03:53.036Z,1004.32
2017-11-25T06:04:53.030Z,1004.34
2017-11-25T06:05:52.953Z,1004.32
2017-11-25T06:06:52.926Z,1004.29
2017-11-25T06:07:52.875Z,1004.31
2017-11-25T06:08:52.837Z,1004.29
2017-11-25T06:09:52.796Z,1004.29
2017-11-25T06:10:52.782Z,1004.25
2017-11-25T06:11:52.723Z,1004.24
2017-11-25T06:12:52.693Z,1004.22
2017-11-25T06:13:52.646Z,1004.21
2017-11-25T06:14:52.601Z,1004.25
2017-11-25T06:15:52.563Z,1004.27
2017-11-25T06:16:52.519Z,1004.18
2017-11-25T06:17:52.482Z,1004.15
2017-11-25T06:18:52.437Z,1004.15
2017-11-25T06:19:52.399Z,1004.11
2017-11-25T06:20:52.357Z,1004.07
2017-11-25T06:21:52.323Z,1004.07
2017-11-25T06:22:52.279Z,1004.08
2017-11-25T06:23:52.238Z,1004.13
2017-11-25T06:24:52.197Z,1004.12
2017-11-25T06:25:52.158Z,1004.13
2017-11-25T06:26:52.120Z,1004.13
2017-11-25T06:27:52.075Z,1004.12
2017-11-25T06:28:53.584Z,1004.08
2017-11-25T06:29:51.997Z,1004.04
2017-11-25T06:30:51.958Z,1004.01
2017-11-25T06:31:51.913Z,1003.95
2017-11-25T06:32:51.875Z,1003.96
2017-11-25T06:33:51.836Z,1003.89
2017-11-25T06:34:51.804Z,1003.87
2017-11-25T06:35:52.631Z,1003.82
2017-11-25T06:36:51.723Z,1003.88
2017-11-25T06:37:51.675Z,1003.80
2017-11-25T06:38:51.633Z,1003.85
2017-11-25T06:39:51.603Z,1003.82
2017-11-25T06:40:51.556Z,1003.82
2017-11-25T06:41:51.515Z,1003.84
2017-11-25T06:42:51.482Z,1003.73
2017-11-25T06:43:51.434Z,1003.72
2017-11-25T06:44:51.393Z,1003.72
2017-11-25T06:45:51.355Z,1003.73
2017-11-25T06:46:51.321Z,1003.69
2017-11-25T06:47:51.290Z,1003.68
2017-11-25T06:48:51.231Z,1003.69
2017-11-25T06:49:51.196Z,1003.70
2017-11-25T06:50:51.157Z,1003.66
2017-11-25T06:51:51.116Z,1003.62
2017-11-25T06:52:51.070Z,1003.64
2017-11-25T06:53:51.033Z,1003.60
2017-11-25T06:54:50.993Z,1003.53
2017-11-25T06:55:50.951Z,1003.55
2017-11-25T06:56:50.907Z,1003.48
2017-11-25T06:57:50.872Z,1003.47
2017-11-25T06:58:50.829Z,1003.44
2017-11-25T06:59:50.790Z,1003.36
2017-11-25T07:00:50.758Z,1003.31
2017-11-25T07:01:50.713Z,1003.29
2017-11-25T07:02:50.671Z,1003.28
2017-11-25T07:03:50.627Z,1003.27
2017-11-25T07:04:50.586Z,1003.23
2017-11-25T07:05:50.545Z,1003.22
2017-11-25T07:06:50.509Z,1003.22
2017-11-25T07:08:26.120Z,1003.18
2017-11-25T07:09:13.143Z,1003.17
2017-11-25T07:09:50.383Z,1003.20
2017-11-25T07:10:50.345Z,1003.16
2017-11-25T07:11:50.307Z,1003.10
2017-11-25T07:12:50.270Z,1003.15
2017-11-25T07:13:50.235Z,1003.10
2017-11-25T07:14:50.186Z,1003.10
2017-11-25T07:15:50.151Z,1003.11
2017-11-25T07:16:50.106Z,1002.99
2017-11-25T07:17:50.067Z,1003.02
2017-11-25T07:18:50.021Z,1003.01
2017-11-25T07:19:49.981Z,1002.95
2017-11-25T07:20:49.957Z,1002.96
2017-11-25T07:21:49.902Z,1002.94
2017-11-25T07:22:49.871Z,1002.97
2017-11-25T07:23:49.823Z,1002.94
2017-11-25T07:24:49.799Z,1002.96
2017-11-25T07:25:49.738Z,1002.94
2017-11-25T07:26:49.694Z,1002.94
2017-11-25T07:27:49.654Z,1002.97
2017-11-25T07:28:49.619Z,1002.96
2017-11-25T07:29:49.576Z,1002.96
2017-11-25T07:30:49.540Z,1002.96
2017-11-25T07:31:49.494Z,1002.96
2017-11-25T07:32:49.472Z,1002.95
2017-11-25T07:33:49.416Z,1002.90
2017-11-25T07:34:49.380Z,1002.88
2017-11-25T07:35:49.340Z,1002.89
2017-11-25T07:36:49.292Z,1002.87
2017-11-25T07:37:49.255Z,1002.79
2017-11-25T07:38:49.260Z,1002.79
2017-11-25T07:39:49.195Z,1002.78
2017-11-25T07:40:49.160Z,1002.78
2017-11-25T07:41:49.106Z,1002.78
2017-11-25T07:42:49.056Z,1002.78
2017-11-25T07:43:49.065Z,1002.76
2017-11-25T07:44:48.981Z,1002.77
2017-11-25T07:45:48.949Z,1002.74
2017-11-25T07:46:48.889Z,1002.72
2017-11-25T07:47:48.855Z,1002.72
2017-11-25T07:48:48.811Z,1002.64
2017-11-25T07:49:48.820Z,1002.60
2017-11-25T07:50:48.726Z,1002.62
2017-11-25T07:51:48.693Z,1002.59
2017-11-25T07:52:48.664Z,1002.59
2017-11-25T07:53:48.639Z,1002.56
2017-11-25T07:54:48.575Z,1002.55
2017-11-25T07:55:48.543Z,1002.53
2017-11-25T07:56:48.553Z,1002.53
2017-11-25T07:57:48.455Z,1002.54
2017-11-25T07:58:48.488Z,1002.54
2017-11-25T07:59:48.366Z,1002.50
2017-11-25T08:00:48.349Z,1002.49
2017-11-25T08:01:48.292Z,1002.49
2017-11-25T08:02:51.087Z,1002.48
2017-11-25T08:03:48.227Z,1002.53
2017-11-25T08:04:48.168Z,1002.44
2017-11-25T08:05:48.130Z,1002.42
2017-11-25T08:06:48.097Z,1002.43
2017-11-25T08:07:48.049Z,1002.38
2017-11-25T08:08:48.006Z,1002.38
2017-11-25T08:09:47.986Z,1002.41
2017-11-25T08:10:47.920Z,1002.40
2017-11-25T08:11:47.885Z,1002.37
2017-11-25T08:12:47.853Z,1002.41
2017-11-25T08:13:47.813Z,1002.40
2017-11-25T08:14:47.760Z,1002.39
2017-11-25T08:15:47.720Z,1002.42
2017-11-25T08:16:47.680Z,1002.34
2017-11-25T08:17:47.651Z,1002.33
2017-11-25T08:18:47.606Z,1002.31
2017-11-25T08:19:47.575Z,1002.37
2017-11-25T08:20:47.518Z,1002.28
2017-11-25T08:21:47.499Z,1002.23
2017-11-25T08:22:47.442Z,1002.22
2017-11-25T08:23:47.396Z,1002.22
2017-11-25T08:24:47.362Z,1002.26
2017-11-25T08:25:47.316Z,1002.19
2017-11-25T08:26:47.287Z,1002.17
2017-11-25T08:27:47.249Z,1002.17
2017-11-25T08:28:47.205Z,1002.18
2017-11-25T08:29:47.153Z,1002.09
2017-11-25T08:30:47.117Z,1002.10
2017-11-25T08:31:47.084Z,1002.17
2017-11-25T08:32:47.040Z,1002.08
2017-11-25T08:33:46.994Z,1002.14
2017-11-25T08:34:46.960Z,1002.09
2017-11-25T08:35:46.915Z,1002.08
2017-11-25T08:36:46.873Z,1002.09
2017-11-25T08:37:46.835Z,1002.09
2017-11-25T08:38:47.623Z,1002.06
2017-11-25T08:39:46.758Z,1002.10
2017-11-25T08:40:47.638Z,1002.05
2017-11-25T08:41:46.676Z,1002.02
2017-11-25T08:42:46.627Z,1002.08
2017-11-25T08:43:46.585Z,1002.05
2017-11-25T08:44:46.552Z,1002.09
2017-11-25T08:45:46.507Z,1002.10
2017-11-25T08:46:46.471Z,1002.04
2017-11-25T08:47:46.429Z,1002.04
2017-11-25T08:49:07.403Z,1002.07
2017-11-25T08:49:46.349Z,1002.06
2017-11-25T08:50:46.318Z,1002.01
2017-11-25T08:51:46.278Z,1002.01
2017-11-25T08:52:46.222Z,1002.00
2017-11-25T08:53:48.130Z,1002.05
2017-11-25T08:54:46.158Z,1002.08
2017-11-25T08:55:47.632Z,1002.11
2017-11-25T08:56:46.061Z,1002.13
2017-11-25T08:57:46.027Z,1002.17
2017-11-25T08:58:45.987Z,1002.13
2017-11-25T08:59:45.955Z,1002.06
2017-11-25T09:00:45.905Z,1002.15
2017-11-25T09:01:45.864Z,1002.09
2017-11-25T09:02:45.833Z,1002.09
2017-11-25T09:03:45.825Z,1002.13
2017-11-25T09:04:45.749Z,1002.09
2017-11-25T09:05:46.615Z,1002.13
2017-11-25T09:06:45.663Z,1002.09
2017-11-25T09:07:45.613Z,1002.13
2017-11-25T09:08:45.583Z,1002.11
2017-11-25T09:09:45.535Z,1002.11
2017-11-25T09:10:45.508Z,1002.08
2017-11-25T09:11:45.464Z,1002.08
2017-11-25T09:12:46.136Z,1002.09
2017-11-25T09:13:45.374Z,1002.04
2017-11-25T09:14:45.335Z,1002.05
2017-11-25T09:15:45.308Z,1002.08
2017-11-25T09:16:45.259Z,1002.06
2017-11-25T09:17:45.208Z,1002.09
2017-11-25T09:18:45.170Z,1002.06
2017-11-25T09:19:45.131Z,1002.02
2017-11-25T09:20:45.087Z,1002.02
2017-11-25T09:21:45.052Z,1001.96
2017-11-25T09:22:45.012Z,1002.00
2017-11-25T09:23:44.993Z,1002.00
2017-11-25T09:24:44.941Z,1002.06
2017-11-25T09:25:44.893Z,1002.02
2017-11-25T09:26:44.854Z,1001.95
2017-11-25T09:27:44.821Z,1001.94
2017-11-25T09:28:44.770Z,1001.94
2017-11-25T09:29:44.726Z,1001.86
2017-11-25T09:30:44.697Z,1001.95
2017-11-25T09:31:45.617Z,1001.95
2017-11-25T09:32:44.605Z,1002.02
2017-11-25T09:33:44.571Z,1001.93
2017-11-25T09:34:44.523Z,1001.90
2017-11-25T09:35:44.488Z,1001.91
2017-11-25T09:36:51.585Z,1001.92
2017-11-25T09:38:37.267Z,1001.92
2017-11-25T09:39:37.226Z,1001.90
2017-11-25T09:41:30.028Z,1001.88
2017-11-25T09:42:29.974Z,1001.82
2017-11-25T09:44:22.803Z,1001.81
2017-11-25T09:45:22.751Z,1001.73
2017-11-25T09:47:15.672Z,1001.71
2017-11-25T09:48:15.525Z,1001.72
2017-11-25T09:50:08.337Z,1001.84
2017-11-25T09:51:08.293Z,1001.69
2017-11-25T09:53:01.111Z,1001.67
2017-11-25T09:54:01.053Z,1001.65
2017-11-25T09:55:54.462Z,1001.67
2017-11-25T09:56:53.877Z,1001.65
2017-11-25T09:58:46.711Z,1001.74
2017-11-25T09:59:46.657Z,1001.69
2017-11-25T10:01:39.437Z,1001.68
2017-11-25T10:02:39.377Z,1001.61
2017-11-25T10:04:32.297Z,1001.60
2017-11-25T10:05:32.183Z,1001.57
2017-11-25T10:07:24.985Z,1001.58
2017-11-25T10:08:24.907Z,1001.63
2017-11-25T10:10:17.838Z,1001.57
2017-11-25T10:11:17.674Z,1001.57
2017-11-25T10:13:10.481Z,1001.52
2017-11-25T10:14:10.436Z,1001.56
2017-11-25T10:16:03.275Z,1001.55
2017-11-25T10:17:04.836Z,1001.61
2017-11-25T10:18:56.056Z,1001.61
2017-11-25T10:19:56.019Z,1001.58
2017-11-25T10:21:48.837Z,1001.51
2017-11-25T10:22:48.780Z,1001.54
2017-11-25T10:24:41.593Z,1001.55
2017-11-25T10:25:41.559Z,1001.55
2017-11-25T10:27:34.369Z,1001.54
2017-11-25T10:28:34.310Z,1001.57
2017-11-25T10:30:27.972Z,1001.54
2017-11-25T10:31:27.938Z,1001.53
2017-11-25T10:33:20.881Z,1001.53
2017-11-25T10:34:22.373Z,1001.49
2017-11-25T10:36:13.521Z,1001.51
2017-11-25T10:37:13.468Z,1001.52
2017-11-25T10:39:06.312Z,1001.48
2017-11-25T10:40:06.264Z,1001.55
2017-11-25T10:41:59.946Z,1001.47
2017-11-25T10:42:59.902Z,1001.54
2017-11-25T10:44:52.756Z,1001.52
2017-11-25T10:45:52.690Z,1001.55
2017-11-25T10:47:45.475Z,1001.60
2017-11-25T10:48:45.452Z,1001.58
2017-11-25T10:50:38.267Z,1001.56
2017-11-25T10:51:38.201Z,1001.68
2017-11-25T10:53:31.019Z,1001.57
2017-11-25T10:54:30.996Z,1001.58
2017-11-25T10:56:23.836Z,1001.63
2017-11-25T10:57:23.775Z,1001.64
2017-11-25T10:59:16.550Z,1001.66
2017-11-25T11:00:16.523Z,1001.65
2017-11-25T11:02:09.333Z,1001.70
2017-11-25T11:03:09.270Z,1001.66
2017-11-25T11:05:02.108Z,1001.68
2017-11-25T11:06:02.089Z,1001.71
2017-11-25T11:07:54.904Z,1001.67
2017-11-25T11:08:54.894Z,1001.66
2017-11-25T11:10:48.137Z,1001.73
2017-11-25T11:11:48.083Z,1001.71
2017-11-25T11:12:48.056Z,1001.78
2017-11-25T11:13:48.003Z,1001.62
2017-11-25T11:14:47.968Z,1001.68
2017-11-25T11:15:47.945Z,1001.71
2017-11-25T11:16:47.901Z,1001.74
2017-11-25T11:17:47.885Z,1001.69
2017-11-25T11:18:47.811Z,1001.75
2017-11-25T11:19:47.771Z,1001.76
2017-11-25T11:20:47.725Z,1001.75
2017-11-25T11:21:47.673Z,1001.83
2017-11-25T11:22:47.635Z,1001.77
2017-11-25T11:23:47.593Z,1001.69
2017-11-25T11:24:47.552Z,1001.78
2017-11-25T11:25:47.512Z,1001.72
2017-11-25T11:26:47.471Z,1001.72
2017-11-25T11:27:47.439Z,1001.74
2017-11-25T11:28:47.408Z,1001.80
2017-11-25T11:29:47.349Z,1001.79
2017-11-25T11:30:47.307Z,1001.87
2017-11-25T11:31:47.283Z,1001.82
2017-11-25T11:32:47.230Z,1001.81
2017-11-25T11:33:47.185Z,1001.87
2017-11-25T11:34:47.142Z,1001.78
2017-11-25T11:35:47.103Z,1001.78
2017-11-25T11:36:47.056Z,1001.82
2017-11-25T11:37:47.031Z,1001.86
2017-11-25T11:38:46.978Z,1001.79
2017-11-25T11:39:46.937Z,1001.77
2017-11-25T11:40:46.900Z,1001.79
2017-11-25T11:41:46.852Z,1001.79
2017-11-25T11:42:46.832Z,1001.80
2017-11-25T11:43:46.784Z,1001.80
2017-11-25T11:44:46.739Z,1001.85
2017-11-25T11:45:46.690Z,1001.93
2017-11-25T11:46:46.647Z,1002.01
2017-11-25T11:47:46.605Z,1001.93
2017-11-25T11:48:46.575Z,1001.87
2017-11-25T11:49:46.541Z,1001.89
2017-11-25T11:50:46.487Z,1001.85
2017-11-25T11:51:46.438Z,1001.89
2017-11-25T11:52:46.408Z,1001.89
2017-11-25T11:53:46.360Z,1001.85
2017-11-25T11:54:46.318Z,1001.82
2017-11-25T11:55:46.276Z,1001.86
2017-11-25T11:56:46.237Z,1001.84
2017-11-25T11:57:46.208Z,1001.82
2017-11-25T11:58:46.156Z,1001.81
2017-11-25T11:59:46.118Z,1001.86
2017-11-25T12:00:46.077Z,1001.84
2017-11-25T12:01:46.030Z,1001.87
2017-11-25T12:02:46.000Z,1001.92
2017-11-25T12:03:45.949Z,1001.85
2017-11-25T12:04:45.908Z,1001.83
2017-11-25T12:05:45.873Z,1001.86
2017-11-25T12:06:45.846Z,1001.85
2017-11-25T12:07:45.781Z,1001.92
2017-11-25T12:08:45.741Z,1001.83
2017-11-25T12:09:45.718Z,1001.83
2017-11-25T12:10:45.662Z,1001.81
2017-11-25T12:11:45.616Z,1001.79
2017-11-25T12:12:45.585Z,1001.80
2017-11-25T12:13:45.533Z,1001.80
2017-11-25T12:14:45.506Z,1001.90
2017-11-25T12:15:45.460Z,1001.84
2017-11-25T12:16:45.411Z,1001.92
2017-11-25T12:17:45.371Z,1001.91
2017-11-25T12:18:45.325Z,1001.91
2017-11-25T12:19:45.281Z,1001.94
2017-11-25T12:20:45.247Z,1001.95
2017-11-25T12:21:45.207Z,1001.96
2017-11-25T12:22:45.163Z,1001.99
2017-11-25T12:23:45.129Z,1001.98
2017-11-25T12:24:45.084Z,1002.00
2017-11-25T12:25:45.039Z,1002.03
2017-11-25T12:26:44.998Z,1002.02
2017-11-25T12:27:44.952Z,1002.05
2017-11-25T12:28:44.917Z,1002.08
2017-11-25T12:29:44.869Z,1002.10
2017-11-25T12:30:44.829Z,1002.07
2017-11-25T12:31:44.788Z,1002.13
2017-11-25T12:32:44.749Z,1002.15
2017-11-25T12:33:44.712Z,1002.13